Time;durP1;ratioP1;P1;durP2;ratioP2;P2;SDS_P1;SDS_P2;PMS_P1;PMS_P2;Temp;Humidity;BMP_temperature;BMP_pressure;BME280_temperature;BME280_humidity;BME280_pressure;Samples;Min_cycle;Max_cycle;Signal;HPM_P1;HPM_P2
2023/06/17 00:00:51;;;;;;;14.82;7.68;;;18.90;66.30;;;;;;5033163;28;20079;-77
2023/06/17 00:03:20;;;;;;;11.52;7.13;;;18.80;66.60;;;;;;5034095;28;20037;-78
2023/06/17 00:05:45;;;;;;;14.60;7.13;;;18.70;67.00;;;;;;5027591;28;20052;-78
2023/06/17 00:08:11;;;;;;;10.40;6.68;;;18.70;67.30;;;;;;5028892;28;20033;-78
2023/06/17 00:10:44;;;;;;;13.77;6.55;;;18.60;67.10;;;;;;5033915;28;20036;-77
2023/06/17 00:13:19;;;;;;;12.70;6.53;;;18.70;67.40;;;;;;5030125;28;20017;-77
2023/06/17 00:15:50;;;;;;;12.02;6.75;;;18.70;66.90;;;;;;5030596;28;20534;-78
2023/06/17 00:18:22;;;;;;;10.00;6.78;;;18.70;66.80;;;;;;5037100;28;20485;-77
2023/06/17 00:20:52;;;;;;;12.55;7.03;;;18.70;67.50;;;;;;5039245;28;20036;-77
2023/06/17 00:23:24;;;;;;;13.48;8.30;;;18.70;68.40;;;;;;5031486;28;20045;-77
2023/06/17 00:25:50;;;;;;;14.50;8.30;;;18.50;69.70;;;;;;5036043;28;20492;-76
2023/06/17 00:28:18;;;;;;;21.55;8.65;;;18.50;70.70;;;;;;5037324;28;20018;-77
2023/06/17 00:30:47;;;;;;;16.77;8.20;;;18.40;70.80;;;;;;5028715;28;20080;-77
2023/06/17 00:33:13;;;;;;;14.32;9.40;;;18.30;71.10;;;;;;5031585;28;20065;-79
2023/06/17 00:35:41;;;;;;;14.05;8.85;;;18.20;70.90;;;;;;5032654;28;20018;-77
2023/06/17 00:38:10;;;;;;;23.13;9.63;;;18.20;70.80;;;;;;5032917;28;20112;-76
2023/06/17 00:40:36;;;;;;;19.13;9.63;;;18.10;71.00;;;;;;5020412;28;20544;-77
2023/06/17 00:43:04;;;;;;;12.95;8.57;;;18.10;70.80;;;;;;5032597;28;20029;-77
2023/06/17 00:45:38;;;;;;;14.57;8.10;;;18.10;71.00;;;;;;5035799;28;20075;-78
2023/06/17 00:48:07;;;;;;;17.13;8.68;;;18.00;70.40;;;;;;5035918;28;20017;-77
2023/06/17 00:50:33;;;;;;;12.82;8.13;;;17.90;70.80;;;;;;5036093;28;20079;-77
2023/06/17 00:53:02;;;;;;;17.50;8.10;;;17.90;71.00;;;;;;5033355;28;20534;-77
2023/06/17 00:55:27;;;;;;;14.48;8.70;;;17.90;70.70;;;;;;5034925;28;20462;-78
2023/06/17 00:57:57;;;;;;;15.50;8.45;;;17.90;71.20;;;;;;5034563;28;20028;-77
2023/06/17 01:00:23;;;;;;;17.55;8.00;;;17.90;72.00;;;;;;5031205;28;20069;-77
2023/06/17 01:02:51;;;;;;;20.42;9.02;;;17.90;72.00;;;;;;5029494;28;20020;-79
2023/06/17 01:05:18;;;;;;;15.05;8.25;;;17.80;71.70;;;;;;5036414;28;20152;-83
2023/06/17 01:07:45;;;;;;;11.50;7.63;;;17.80;72.10;;;;;;5037579;28;20029;-83
2023/06/17 01:10:33;;;;;;;14.48;7.72;;;17.70;72.40;;;;;;5032669;28;20018;-83
2023/06/17 01:13:00;;;;;;;11.02;7.85;;;17.70;72.40;;;;;;5029926;28;20029;-78
2023/06/17 01:15:27;;;;;;;16.63;8.05;;;17.70;72.10;;;;;;5030079;28;20018;-77
2023/06/17 01:17:54;;;;;;;12.57;7.38;;;17.60;72.90;;;;;;5031743;28;20067;-77
2023/06/17 01:20:22;;;;;;;11.95;7.00;;;17.50;72.50;;;;;;5026774;28;20024;-78
2023/06/17 01:22:52;;;;;;;12.60;7.05;;;17.50;73.00;;;;;;5034452;28;20021;-82
2023/06/17 01:25:29;;;;;;;16.50;8.18;;;17.40;72.80;;;;;;5032758;28;20377;-82
2023/06/17 01:27:59;;;;;;;13.27;6.10;;;17.40;72.80;;;;;;5033517;28;20080;-83
2023/06/17 01:30:28;;;;;;;14.95;6.95;;;17.30;72.90;;;;;;5030653;28;20084;-83
2023/06/17 01:33:00;;;;;;;16.48;7.55;;;17.30;73.30;;;;;;5029686;28;20021;-83
2023/06/17 01:35:32;;;;;;;10.43;7.10;;;17.30;73.50;;;;;;5030128;28;20020;-83
2023/06/17 01:38:18;;;;;;;12.02;6.97;;;17.20;73.40;;;;;;5031252;28;20580;-82
2023/06/17 01:40:46;;;;;;;11.25;7.07;;;17.20;74.10;;;;;;5029607;28;20095;-82
2023/06/17 01:43:17;;;;;;;12.20;7.22;;;17.20;74.60;;;;;;5026417;28;20108;-82
2023/06/17 01:45:46;;;;;;;11.43;7.28;;;17.20;75.70;;;;;;5031638;28;20108;-83
2023/06/17 01:48:11;;;;;;;10.25;7.05;;;17.20;76.10;;;;;;5027810;28;20090;-82
2023/06/17 01:50:37;;;;;;;14.52;7.70;;;17.10;76.70;;;;;;5036470;28;20129;-84
2023/06/17 01:53:03;;;;;;;13.82;6.63;;;17.10;75.90;;;;;;5033884;28;20366;-82
2023/06/17 01:55:30;;;;;;;12.23;7.10;;;17.10;76.40;;;;;;5026587;28;20025;-82
2023/06/17 01:57:56;;;;;;;12.57;7.40;;;17.00;77.20;;;;;;5028943;28;20026;-82
2023/06/17 02:00:22;;;;;;;13.55;6.28;;;16.90;76.70;;;;;;5028101;28;20124;-83
2023/06/17 02:02:47;;;;;;;10.73;7.20;;;16.90;77.40;;;;;;5028514;28;20054;-82
2023/06/17 02:05:13;;;;;;;13.50;7.60;;;16.90;76.40;;;;;;5033099;28;20034;-82
2023/06/17 02:07:40;;;;;;;14.05;7.43;;;17.00;77.80;;;;;;5032827;28;20021;-82
2023/06/17 02:10:06;;;;;;;16.88;7.70;;;16.90;78.10;;;;;;5031846;28;20466;-83
2023/06/17 02:12:32;;;;;;;13.68;6.75;;;16.80;78.80;;;;;;5028696;28;20046;-82
2023/06/17 02:14:58;;;;;;;15.15;6.82;;;16.70;78.70;;;;;;5032364;28;20065;-83
2023/06/17 02:17:27;;;;;;;19.17;7.15;;;16.80;79.80;;;;;;5031920;28;20028;-82
2023/06/17 02:19:52;;;;;;;9.43;7.05;;;16.70;79.70;;;;;;5031348;28;20104;-81
2023/06/17 02:22:18;;;;;;;19.85;7.00;;;16.50;80.00;;;;;;5032065;28;20113;-83
2023/06/17 02:24:46;;;;;;;17.63;7.18;;;16.50;80.10;;;;;;5035576;28;20052;-83
2023/06/17 02:27:12;;;;;;;14.63;7.03;;;16.40;79.70;;;;;;5036927;28;20009;-82
2023/06/17 02:29:37;;;;;;;13.18;6.50;;;16.30;79.90;;;;;;5053510;28;20035;-83
2023/06/17 02:32:04;;;;;;;16.88;6.70;;;16.30;80.70;;;;;;5031429;28;20029;-82
2023/06/17 02:34:33;;;;;;;12.25;7.20;;;16.30;81.20;;;;;;5029988;28;20029;-82
2023/06/17 02:36:59;;;;;;;10.48;7.50;;;16.20;83.30;;;;;;5030634;28;20017;-82
2023/06/17 02:39:25;;;;;;;13.80;7.35;;;16.10;82.50;;;;;;5035476;28;20067;-82
2023/06/17 02:41:50;;;;;;;11.65;7.82;;;16.10;82.90;;;;;;5028885;28;20025;-83
2023/06/17 02:44:16;;;;;;;13.05;7.25;;;16.00;82.60;;;;;;5029071;28;20068;-82
2023/06/17 02:46:41;;;;;;;15.43;7.32;;;16.00;82.90;;;;;;5033104;28;20130;-83
2023/06/17 02:49:07;;;;;;;9.75;6.82;;;16.00;83.60;;;;;;5031998;28;20037;-82
2023/06/17 02:51:34;;;;;;;15.35;7.30;;;15.90;84.10;;;;;;5025387;28;20064;-82
2023/06/17 02:53:59;;;;;;;12.13;6.75;;;15.90;84.40;;;;;;5031039;28;20099;-82
2023/06/17 02:56:27;;;;;;;10.40;7.40;;;15.90;84.00;;;;;;5028283;28;20064;-82
2023/06/17 02:58:53;;;;;;;11.65;7.30;;;15.90;83.70;;;;;;5030439;28;20380;-76
2023/06/17 03:01:21;;;;;;;10.93;7.05;;;15.90;83.80;;;;;;5030239;28;20049;-77
2023/06/17 03:03:46;;;;;;;14.00;7.40;;;15.90;84.20;;;;;;5030076;28;20057;-76
2023/06/17 03:06:13;;;;;;;11.23;7.10;;;15.80;85.00;;;;;;5026859;28;20413;-77
2023/06/17 03:08:40;;;;;;;11.40;7.20;;;15.70;85.50;;;;;;5030448;28;20521;-77
2023/06/17 03:11:06;;;;;;;9.50;6.47;;;15.70;85.70;;;;;;5036845;28;20025;-81
2023/06/17 03:13:32;;;;;;;11.23;7.40;;;15.60;85.30;;;;;;5024651;28;20394;-82
2023/06/17 03:16:05;;;;;;;12.45;7.28;;;15.50;85.70;;;;;;5027645;28;20029;-77
2023/06/17 03:18:30;;;;;;;12.63;7.35;;;15.40;85.70;;;;;;5031714;28;20029;-76
2023/06/17 03:20:56;;;;;;;9.05;6.45;;;15.30;86.20;;;;;;5025476;28;20054;-76
2023/06/17 03:23:22;;;;;;;19.52;7.20;;;15.40;87.00;;;;;;5025754;28;20376;-76
2023/06/17 03:25:49;;;;;;;14.90;7.70;;;15.30;87.40;;;;;;5032794;28;20029;-77
2023/06/17 03:28:15;;;;;;;14.48;6.88;;;15.30;86.80;;;;;;5029459;28;20067;-77
2023/06/17 03:30:41;;;;;;;10.88;7.40;;;15.20;86.90;;;;;;5031492;28;20415;-78
2023/06/17 03:33:08;;;;;;;9.27;6.95;;;15.20;86.80;;;;;;5027576;28;20052;-77
2023/06/17 03:35:34;;;;;;;13.65;7.85;;;15.20;87.70;;;;;;5034616;28;20017;-78
2023/06/17 03:38:00;;;;;;;11.85;7.25;;;15.10;87.70;;;;;;5034109;28;20485;-78
2023/06/17 03:40:26;;;;;;;15.48;7.00;;;15.10;88.90;;;;;;5029423;28;20030;-78
2023/06/17 03:42:51;;;;;;;11.77;7.18;;;15.00;89.40;;;;;;5057751;28;20089;-80
2023/06/17 03:45:17;;;;;;;9.00;6.15;;;15.00;89.90;;;;;;5061606;28;20039;-78
2023/06/17 03:47:43;;;;;;;12.20;6.57;;;15.00;89.90;;;;;;5058936;28;20017;-79
2023/06/17 03:50:09;;;;;;;9.80;6.43;;;15.00;89.50;;;;;;5047452;28;20040;-81
2023/06/17 03:52:34;;;;;;;10.07;6.80;;;15.10;90.10;;;;;;5028938;28;20021;-83
2023/06/17 03:55:00;;;;;;;11.85;6.90;;;15.20;89.60;;;;;;5033203;28;20021;-82
2023/06/17 03:57:26;;;;;;;13.70;7.05;;;15.20;89.50;;;;;;5026266;28;20488;-82
2023/06/17 03:59:54;;;;;;;11.95;8.05;;;15.30;88.90;;;;;;5031093;28;20393;-78
2023/06/17 04:02:20;;;;;;;12.70;6.97;;;15.30;88.60;;;;;;5031178;28;20021;-77
2023/06/17 04:04:46;;;;;;;9.93;6.55;;;15.30;88.80;;;;;;5031430;28;20029;-77
2023/06/17 04:07:11;;;;;;;12.48;6.97;;;15.30;88.20;;;;;;5049997;28;20062;-77
2023/06/17 04:09:37;;;;;;;15.07;7.30;;;15.40;88.50;;;;;;5034960;28;20026;-82
2023/06/17 04:12:03;;;;;;;13.95;7.70;;;15.40;88.30;;;;;;5027018;28;20435;-82
2023/06/17 04:14:29;;;;;;;12.57;7.80;;;15.50;88.00;;;;;;5027375;28;20539;-83
2023/06/17 04:16:56;;;;;;;11.00;7.85;;;15.60;88.10;;;;;;5032752;28;20033;-83
2023/06/17 04:19:23;;;;;;;11.70;8.20;;;15.60;88.50;;;;;;5030744;28;20033;-83
2023/06/17 04:21:49;;;;;;;15.18;7.80;;;15.70;88.00;;;;;;5031683;28;20030;-80
2023/06/17 04:24:15;;;;;;;11.02;7.53;;;15.80;87.70;;;;;;5033634;28;20032;-82
2023/06/17 04:26:44;;;;;;;10.35;7.30;;;16.00;88.50;;;;;;5029211;28;20428;-82
2023/06/17 04:29:14;;;;;;;14.80;7.60;;;16.10;87.70;;;;;;5033529;28;20559;-82
2023/06/17 04:31:46;;;;;;;12.30;7.57;;;16.20;87.60;;;;;;5034099;28;20037;-83
2023/06/17 04:34:21;;;;;;;11.57;7.70;;;16.10;87.60;;;;;;5034666;28;20484;-83
2023/06/17 04:36:56;;;;;;;12.27;7.90;;;16.30;87.30;;;;;;5037697;28;20021;-82
2023/06/17 04:39:26;;;;;;;12.05;8.40;;;16.40;86.90;;;;;;5046634;28;20024;-83
2023/06/17 04:41:52;;;;;;;14.35;8.02;;;16.50;86.60;;;;;;5033456;28;20017;-82
2023/06/17 04:44:18;;;;;;;13.45;8.07;;;16.50;86.70;;;;;;5033287;28;20520;-83
2023/06/17 04:46:44;;;;;;;21.55;8.82;;;16.60;87.20;;;;;;5031815;28;20366;-82
2023/06/17 04:49:12;;;;;;;12.27;9.07;;;16.70;87.10;;;;;;5029358;28;20017;-83
2023/06/17 04:51:40;;;;;;;14.23;8.68;;;16.90;87.10;;;;;;5029231;28;20018;-83
2023/06/17 04:54:06;;;;;;;11.80;8.85;;;16.90;87.10;;;;;;5034675;28;20028;-83
2023/06/17 04:56:32;;;;;;;14.20;9.02;;;17.00;86.70;;;;;;5033519;28;20026;-83
2023/06/17 04:58:57;;;;;;;14.70;9.50;;;17.20;86.80;;;;;;5026094;28;20021;-83
2023/06/17 05:01:23;;;;;;;17.58;9.55;;;17.30;86.70;;;;;;5031305;28;20057;-77
2023/06/17 05:03:49;;;;;;;14.73;10.48;;;17.30;86.20;;;;;;5032084;28;20501;-77
2023/06/17 05:06:14;;;;;;;16.08;10.20;;;17.50;86.40;;;;;;5034291;28;20051;-85
2023/06/17 05:08:40;;;;;;;18.98;10.88;;;17.60;85.80;;;;;;5033093;28;20037;-84
2023/06/17 05:11:06;;;;;;;15.77;11.00;;;17.70;85.20;;;;;;5030740;28;20029;-84
2023/06/17 05:13:31;;;;;;;17.42;10.90;;;17.80;83.80;;;;;;5034274;28;20073;-77
2023/06/17 05:15:57;;;;;;;16.35;10.90;;;17.80;83.40;;;;;;5029352;28;20292;-77
2023/06/17 05:18:22;;;;;;;13.35;11.07;;;17.80;83.30;;;;;;5033455;28;20477;-77
2023/06/17 05:20:48;;;;;;;18.02;10.85;;;17.80;83.20;;;;;;5027610;28;20018;-77
2023/06/17 05:23:16;;;;;;;19.65;10.75;;;18.00;82.70;;;;;;5030820;28;20464;-76
2023/06/17 05:25:42;;;;;;;21.63;11.75;;;18.10;83.20;;;;;;5033683;28;20106;-77
2023/06/17 05:28:10;;;;;;;14.43;11.48;;;18.20;83.50;;;;;;5028425;28;20383;-76
2023/06/17 05:30:38;;;;;;;19.70;11.80;;;18.20;83.00;;;;;;5024112;28;20075;-77
2023/06/17 05:33:04;;;;;;;16.35;10.40;;;18.20;82.80;;;;;;5030298;28;20040;-77
2023/06/17 05:35:30;;;;;;;15.77;11.68;;;18.30;82.40;;;;;;5030598;28;20085;-77
2023/06/17 05:37:55;;;;;;;18.08;11.25;;;18.40;82.30;;;;;;5025142;28;20544;-77
2023/06/17 05:40:21;;;;;;;16.85;11.30;;;18.50;82.70;;;;;;5030263;28;20033;-77
2023/06/17 05:42:47;;;;;;;17.70;10.27;;;18.60;82.70;;;;;;5032197;28;20650;-77
2023/06/17 05:45:12;;;;;;;18.10;11.93;;;18.70;82.10;;;;;;5028960;28;20051;-77
2023/06/17 05:47:38;;;;;;;14.82;10.57;;;18.70;82.60;;;;;;5029978;28;20076;-78
2023/06/17 05:50:04;;;;;;;13.45;10.98;;;18.70;83.10;;;;;;5029062;28;20025;-77
2023/06/17 05:52:29;;;;;;;11.63;9.55;;;18.70;84.10;;;;;;5030221;28;20028;-77
2023/06/17 05:54:55;;;;;;;15.32;10.88;;;18.80;84.10;;;;;;5033334;28;20029;-77
2023/06/17 05:57:21;;;;;;;15.27;10.63;;;19.00;83.90;;;;;;5033652;28;20112;-78
2023/06/17 05:59:46;;;;;;;23.67;10.57;;;19.10;83.40;;;;;;5024867;28;20020;-77
2023/06/17 06:02:12;;;;;;;17.48;11.52;;;19.20;83.20;;;;;;5030112;28;20030;-77
2023/06/17 06:04:38;;;;;;;16.85;10.95;;;19.30;83.30;;;;;;5030564;28;20026;-77
2023/06/17 06:07:03;;;;;;;15.02;10.20;;;19.40;83.00;;;;;;5030123;28;20097;-77
2023/06/17 06:09:29;;;;;;;15.20;8.85;;;19.50;82.80;;;;;;5028136;28;20103;-78
2023/06/17 06:11:55;;;;;;;11.40;9.27;;;19.50;82.70;;;;;;5034078;28;20025;-78
2023/06/17 06:14:20;;;;;;;13.98;9.25;;;19.60;83.20;;;;;;5032653;28;20033;-78
2023/06/17 06:16:46;;;;;;;16.65;8.82;;;19.60;82.80;;;;;;5027972;28;20461;-78
2023/06/17 06:19:12;;;;;;;11.88;8.52;;;19.60;82.80;;;;;;5033204;28;20032;-78
2023/06/17 06:21:37;;;;;;;10.35;8.40;;;19.60;83.20;;;;;;5031064;28;20284;-78
2023/06/17 06:24:03;;;;;;;13.27;8.00;;;19.70;83.10;;;;;;5030928;28;20028;-79
2023/06/17 06:26:29;;;;;;;10.70;7.82;;;19.80;82.80;;;;;;5030381;28;20018;-78
2023/06/17 06:28:54;;;;;;;15.05;8.38;;;19.90;82.60;;;;;;5035147;28;20388;-78
2023/06/17 06:31:20;;;;;;;12.88;7.85;;;20.10;82.60;;;;;;5030057;28;20025;-79
2023/06/17 06:33:46;;;;;;;15.23;8.20;;;20.20;82.30;;;;;;5031437;28;20032;-79
2023/06/17 06:36:12;;;;;;;9.73;8.20;;;20.30;82.70;;;;;;5032700;28;20390;-78
2023/06/17 06:38:40;;;;;;;101.85;41.45;;;20.30;82.80;;;;;;5025141;28;20036;-78
2023/06/17 06:41:05;;;;;;;13.55;8.20;;;20.30;82.70;;;;;;5029300;28;20552;-77
2023/06/17 06:43:31;;;;;;;10.73;8.05;;;20.40;82.70;;;;;;5034059;28;20030;-77
2023/06/17 06:45:56;;;;;;;8.80;7.88;;;20.50;83.10;;;;;;5034171;28;20034;-77
2023/06/17 06:48:22;;;;;;;10.63;6.85;;;20.70;83.00;;;;;;5030288;28;20021;-77
2023/06/17 06:50:48;;;;;;;9.60;7.47;;;20.80;82.40;;;;;;5029216;28;20049;-77
2023/06/17 06:53:13;;;;;;;12.27;8.45;;;20.80;81.60;;;;;;5030780;28;20156;-77
2023/06/17 06:55:39;;;;;;;14.20;7.90;;;20.90;79.80;;;;;;5034187;28;20519;-78
2023/06/17 06:58:04;;;;;;;15.50;9.32;;;20.90;79.90;;;;;;5033640;28;20033;-77
2023/06/17 07:00:30;;;;;;;13.32;8.10;;;20.90;80.20;;;;;;5028195;28;20039;-76
2023/06/17 07:02:58;;;;;;;20.10;7.63;;;20.90;78.10;;;;;;5031615;28;20033;-74
2023/06/17 07:05:23;;;;;;;12.10;7.70;;;20.90;77.80;;;;;;5031096;28;20034;-75
2023/06/17 07:07:49;;;;;;;9.50;8.07;;;21.00;78.20;;;;;;5029324;28;20041;-77
2023/06/17 07:10:15;;;;;;;10.73;7.60;;;21.20;78.10;;;;;;5026668;28;20025;-78
2023/06/17 07:12:41;;;;;;;12.40;7.32;;;21.20;77.30;;;;;;5031112;28;20052;-77
2023/06/17 07:15:07;;;;;;;9.18;6.93;;;21.30;76.20;;;;;;5028984;28;20039;-80
2023/06/17 07:17:32;;;;;;;13.88;7.32;;;21.40;74.70;;;;;;5031837;28;20026;-77
2023/06/17 07:19:59;;;;;;;10.07;7.05;;;21.50;74.30;;;;;;5033456;28;20036;-78
2023/06/17 07:22:28;;;;;;;12.80;6.10;;;21.60;75.20;;;;;;5030345;28;20024;-77
2023/06/17 07:24:56;;;;;;;12.95;7.20;;;21.70;71.20;;;;;;5030940;28;20025;-78
2023/06/17 07:27:21;;;;;;;15.30;6.70;;;21.70;72.30;;;;;;5031904;28;20086;-78
2023/06/17 07:29:47;;;;;;;6.30;5.70;;;21.80;71.00;;;;;;5030396;28;20025;-76
2023/06/17 07:32:13;;;;;;;8.98;5.63;;;21.80;69.20;;;;;;5030417;28;20036;-77
2023/06/17 07:34:38;;;;;;;6.80;5.88;;;21.90;69.00;;;;;;5029029;28;20028;-78
2023/06/17 07:37:04;;;;;;;8.88;5.65;;;22.00;70.50;;;;;;5033484;28;20029;-77
2023/06/17 07:39:29;;;;;;;5.43;4.88;;;22.10;68.10;;;;;;5031066;28;20055;-77
2023/06/17 07:41:55;;;;;;;5.45;4.80;;;22.20;66.20;;;;;;5025817;28;20056;-77
2023/06/17 07:44:21;;;;;;;6.43;5.00;;;22.20;64.30;;;;;;5022051;28;20033;-78
2023/06/17 07:46:46;;;;;;;8.60;5.32;;;22.40;65.20;;;;;;5030961;28;20060;-78
2023/06/17 07:49:12;;;;;;;8.50;5.10;;;22.50;66.20;;;;;;5034533;28;20049;-80
2023/06/17 07:51:38;;;;;;;165.15;73.35;;;22.70;63.30;;;;;;5024525;28;20697;-80
2023/06/17 07:54:06;;;;;;;9.93;5.03;;;23.00;62.10;;;;;;5030832;28;20042;-77
2023/06/17 07:56:32;;;;;;;6.28;5.00;;;23.20;62.70;;;;;;5014839;28;20643;-77
2023/06/17 07:58:59;;;;;;;7.22;4.97;;;23.40;59.80;;;;;;5027144;28;20108;-77
2023/06/17 08:01:25;;;;;;;7.65;5.47;;;23.60;60.00;;;;;;5028407;28;20067;-87
2023/06/17 08:03:53;;;;;;;6.70;5.28;;;23.70;59.60;;;;;;5028211;28;20093;-77
2023/06/17 08:06:18;;;;;;;6.85;5.30;;;23.70;59.00;;;;;;5027959;28;20505;-77
2023/06/17 08:08:45;;;;;;;9.43;5.35;;;23.80;58.80;;;;;;5035272;28;20021;-76
2023/06/17 08:11:11;;;;;;;7.28;4.93;;;24.00;58.80;;;;;;5017979;28;20021;-76
2023/06/17 08:13:36;;;;;;;5.20;4.63;;;23.90;57.90;;;;;;5026784;28;20045;-76
2023/06/17 08:16:02;;;;;;;6.43;4.72;;;24.30;56.80;;;;;;5034068;28;20033;-77
2023/06/17 08:18:28;;;;;;;10.05;5.45;;;24.50;55.80;;;;;;5033640;28;20026;-77
2023/06/17 08:20:53;;;;;;;12.48;4.68;;;24.80;54.90;;;;;;5060795;28;20048;-81
2023/06/17 08:23:20;;;;;;;5.40;4.65;;;25.20;53.30;;;;;;5054212;28;20033;-76
2023/06/17 08:25:46;;;;;;;5.57;4.63;;;25.50;54.30;;;;;;5057625;28;20018;-76
2023/06/17 08:28:12;;;;;;;8.35;4.63;;;26.00;54.20;;;;;;5050563;28;20024;-75
2023/06/17 08:30:37;;;;;;;5.25;4.68;;;26.50;53.00;;;;;;5030996;28;20034;-76
2023/06/17 08:33:03;;;;;;;7.55;5.35;;;26.50;52.10;;;;;;5032061;28;20495;-75
2023/06/17 08:35:29;;;;;;;6.47;4.72;;;26.40;53.00;;;;;;5023132;28;20095;-75
2023/06/17 08:37:54;;;;;;;7.00;4.90;;;26.50;51.10;;;;;;5029516;28;20083;-75
2023/06/17 08:40:22;;;;;;;8.85;5.22;;;27.00;51.40;;;;;;5030666;28;20021;-75
2023/06/17 08:42:53;;;;;;;7.93;4.90;;;27.50;51.30;;;;;;5030866;28;20033;-75
2023/06/17 08:45:20;;;;;;;6.32;5.30;;;27.70;50.40;;;;;;5032231;28;20037;-74
2023/06/17 08:47:46;;;;;;;5.07;4.50;;;27.90;50.10;;;;;;5031259;28;20027;-75
2023/06/17 08:50:13;;;;;;;6.40;4.47;;;28.10;47.70;;;;;;5026496;28;20025;-75
2023/06/17 08:52:40;;;;;;;9.00;4.45;;;28.40;46.30;;;;;;5029989;28;20052;-78
2023/06/17 08:55:06;;;;;;;5.00;4.03;;;28.50;46.40;;;;;;5029107;28;20083;-76
2023/06/17 08:57:32;;;;;;;35.58;18.50;;;28.80;46.00;;;;;;5038876;28;20105;-85
2023/06/17 08:59:57;;;;;;;14.18;5.30;;;28.70;45.60;;;;;;5041830;28;20064;-81
2023/06/17 09:02:24;;;;;;;9.15;6.78;;;28.30;44.80;;;;;;5035353;28;20064;-82
2023/06/17 09:04:50;;;;;;;9.20;4.20;;;28.30;46.30;;;;;;5039989;28;20123;-85
2023/06/17 09:07:16;;;;;;;5.55;4.90;;;28.80;46.50;;;;;;5027070;28;20025;-84
2023/06/17 09:09:47;;;;;;;5.88;4.55;;;29.00;46.30;;;;;;5020284;28;20017;-85
2023/06/17 09:12:13;;;;;;;9.48;5.45;;;29.10;46.70;;;;;;5021073;28;20108;-78
2023/06/17 09:14:44;;;;;;;13.38;5.65;;;29.20;46.60;;;;;;5025521;28;20116;-77
2023/06/17 09:17:10;;;;;;;6.15;5.00;;;29.30;45.30;;;;;;5025034;28;20025;-78
2023/06/17 09:19:40;;;;;;;7.13;4.82;;;29.30;44.20;;;;;;5029657;28;20017;-77
2023/06/17 09:22:06;;;;;;;7.60;5.25;;;29.40;45.70;;;;;;5024850;28;20095;-78
2023/06/17 09:24:32;;;;;;;7.75;4.75;;;29.80;44.90;;;;;;5032525;28;20523;-84
2023/06/17 09:26:58;;;;;;;5.97;5.47;;;29.60;44.70;;;;;;5038359;28;20107;-83
2023/06/17 09:29:23;;;;;;;14.82;5.45;;;29.50;45.80;;;;;;5031638;28;20326;-83
2023/06/17 09:31:51;;;;;;;5.35;4.95;;;29.30;45.50;;;;;;5028834;28;20048;-85
2023/06/17 09:34:17;;;;;;;7.30;4.95;;;29.20;45.40;;;;;;5020189;28;20499;-78
2023/06/17 09:36:44;;;;;;;222.27;110.22;;;29.50;45.30;;;;;;5029401;28;20033;-78
2023/06/17 09:39:13;;;;;;;8.32;5.13;;;29.70;43.80;;;;;;5020636;28;20025;-80
2023/06/17 09:41:45;;;;;;;10.65;4.97;;;29.60;43.80;;;;;;5030428;28;20021;-81
2023/06/17 09:44:11;;;;;;;8.38;3.92;;;30.10;43.50;;;;;;5024781;28;20483;-81
2023/06/17 09:46:39;;;;;;;6.38;3.88;;;30.40;40.70;;;;;;5021292;28;20420;-80
2023/06/17 09:49:09;;;;;;;4.40;4.10;;;30.50;40.40;;;;;;5031134;28;20021;-81
2023/06/17 09:51:38;;;;;;;4.45;4.05;;;30.40;42.00;;;;;;5030103;28;20769;-81
2023/06/17 09:54:07;;;;;;;5.95;4.47;;;30.00;42.60;;;;;;5021843;28;20064;-81
2023/06/17 09:56:35;;;;;;;5.90;4.20;;;30.30;43.40;;;;;;5029885;28;20029;-81
2023/06/17 09:59:03;;;;;;;5.55;5.00;;;31.00;42.80;;;;;;5031023;28;20377;-78
2023/06/17 10:01:30;;;;;;;11.07;5.05;;;31.30;41.80;;;;;;5025900;28;20021;-81
2023/06/17 10:04:02;;;;;;;8.70;4.95;;;31.20;41.70;;;;;;5030179;28;20100;-80
2023/06/17 10:06:29;;;;;;;5.20;4.63;;;31.50;40.80;;;;;;5031853;28;20037;-81
2023/06/17 10:08:56;;;;;;;7.05;5.15;;;31.50;41.30;;;;;;5033333;28;20048;-77
2023/06/17 10:11:23;;;;;;;7.78;4.50;;;31.80;40.10;;;;;;5032275;28;20441;-79
2023/06/17 10:14:07;;;;;;;4.38;3.97;;;32.20;39.40;;;;;;5031199;28;20030;-79
2023/06/17 10:16:36;;;;;;;8.65;4.32;;;32.10;38.20;;;;;;5031990;28;20060;-80
2023/06/17 10:19:05;;;;;;;9.48;4.00;;;32.10;38.50;;;;;;5034306;28;20055;-78
2023/06/17 10:21:34;;;;;;;7.78;4.00;;;31.80;37.10;;;;;;5034124;28;20028;-77
2023/06/17 10:24:01;;;;;;;7.82;4.25;;;31.60;36.60;;;;;;5028690;28;20036;-78
2023/06/17 10:26:31;;;;;;;6.53;3.75;;;31.10;37.00;;;;;;5036571;28;20074;-78
2023/06/17 10:29:00;;;;;;;4.65;3.92;;;31.00;37.30;;;;;;5029277;28;20083;-79
2023/06/17 10:31:31;;;;;;;4.35;4.05;;;31.00;37.00;;;;;;5033545;28;20057;-78
2023/06/17 10:34:00;;;;;;;4.32;3.92;;;31.30;37.40;;;;;;5035302;28;20029;-78
2023/06/17 10:36:27;;;;;;;6.68;4.35;;;31.10;38.00;;;;;;5029556;28;20040;-81
2023/06/17 10:38:57;;;;;;;5.55;3.42;;;31.20;37.80;;;;;;5030221;28;20074;-82
2023/06/17 10:41:49;;;;;;;3.70;3.40;;;31.50;35.50;;;;;;5027555;28;20495;-82
2023/06/17 10:44:40;;;;;;;10.63;3.17;;;31.50;35.50;;;;;;5030254;28;20025;-82
2023/06/17 10:47:20;;;;;;;3.55;3.22;;;31.80;33.40;;;;;;5033064;28;20127;-82
2023/06/17 10:49:48;;;;;;;3.83;3.38;;;31.80;32.80;;;;;;5038921;28;20017;-83
2023/06/17 10:52:14;;;;;;;5.45;3.40;;;31.70;33.10;;;;;;5046608;28;20025;-79
2023/06/17 10:54:53;;;;;;;4.25;3.53;;;31.30;33.20;;;;;;5027292;28;20017;-80
2023/06/17 10:57:33;;;;;;;5.05;3.78;;;30.90;34.60;;;;;;5030689;28;20112;-80
2023/06/17 11:00:11;;;;;;;3.15;2.92;;;31.30;34.90;;;;;;5025479;28;20108;-82
2023/06/17 11:02:42;;;;;;;3.90;3.60;;;31.60;34.40;;;;;;5032627;28;20049;-81
2023/06/17 11:05:09;;;;;;;4.47;2.85;;;31.60;33.40;;;;;;5031136;28;20035;-80
2023/06/17 11:07:34;;;;;;;5.72;3.33;;;32.00;32.70;;;;;;5029333;28;20386;-80
2023/06/17 11:10:00;;;;;;;5.38;3.70;;;32.10;32.50;;;;;;5027863;28;20026;-81
2023/06/17 11:12:26;;;;;;;4.32;3.35;;;32.00;33.50;;;;;;5031238;28;20036;-81
2023/06/17 11:14:52;;;;;;;3.67;3.30;;;32.10;33.20;;;;;;5032250;28;20025;-80
2023/06/17 11:17:18;;;;;;;3.67;3.40;;;32.20;33.70;;;;;;5028383;28;20025;-79
2023/06/17 11:19:44;;;;;;;3.40;3.10;;;32.10;33.10;;;;;;5028520;28;20076;-82
2023/06/17 11:22:09;;;;;;;3.95;3.65;;;31.60;32.90;;;;;;5032543;28;20138;-79
2023/06/17 11:24:35;;;;;;;6.35;3.45;;;31.30;33.80;;;;;;5031729;28;20021;-79
2023/06/17 11:27:02;;;;;;;3.67;3.38;;;31.40;33.50;;;;;;5029986;28;20469;-79
2023/06/17 11:29:28;;;;;;;4.10;3.70;;;31.10;33.50;;;;;;5025213;28;20082;-81
2023/06/17 11:31:57;;;;;;;4.22;3.75;;;31.50;34.40;;;;;;5031565;28;20032;-79
2023/06/17 11:34:23;;;;;;;4.93;3.47;;;31.80;34.60;;;;;;5018566;28;20131;-80
2023/06/17 11:36:53;;;;;;;4.15;3.22;;;31.90;33.30;;;;;;5027912;28;20059;-78
2023/06/17 11:39:31;;;;;;;3.22;2.92;;;32.20;32.60;;;;;;5026900;28;20056;-79
2023/06/17 11:42:03;;;;;;;3.45;3.20;;;32.00;32.00;;;;;;5015754;28;20113;-79
2023/06/17 11:44:32;;;;;;;3.22;3.03;;;31.70;31.70;;;;;;5029851;28;20438;-79
2023/06/17 11:47:08;;;;;;;4.75;2.97;;;31.80;31.80;;;;;;5031154;28;20170;-80
2023/06/17 11:49:35;;;;;;;3.15;2.95;;;31.70;31.10;;;;;;5030743;28;20021;-79
2023/06/17 11:52:05;;;;;;;3.90;3.58;;;31.60;32.60;;;;;;5033342;28;20027;-80
2023/06/17 11:54:31;;;;;;;4.82;3.05;;;31.10;33.10;;;;;;5030653;28;20056;-79
2023/06/17 11:56:57;;;;;;;3.17;2.88;;;31.30;33.10;;;;;;5034823;28;20409;-80
2023/06/17 11:59:23;;;;;;;4.97;3.50;;;31.50;31.70;;;;;;5027656;28;20029;-79
2023/06/17 12:01:49;;;;;;;7.50;3.45;;;32.00;31.70;;;;;;5032012;28;20429;-80
2023/06/17 12:04:15;;;;;;;6.18;3.50;;;32.20;33.20;;;;;;5035218;28;20052;-80
2023/06/17 12:06:42;;;;;;;4.88;3.33;;;31.90;33.40;;;;;;5028869;28;20057;-80
2023/06/17 12:09:08;;;;;;;3.72;3.42;;;32.10;33.20;;;;;;5028172;28;20488;-80
2023/06/17 12:11:38;;;;;;;3.53;3.22;;;32.50;33.10;;;;;;5032757;28;20024;-80
2023/06/17 12:14:08;;;;;;;3.25;3.03;;;33.10;32.80;;;;;;5033364;28;20024;-80
2023/06/17 12:16:37;;;;;;;3.78;3.47;;;33.50;32.40;;;;;;5028395;28;20013;-80
2023/06/17 12:19:12;;;;;;;4.88;4.38;;;34.00;32.30;;;;;;5025406;28;20029;-80
2023/06/17 12:21:38;;;;;;;4.60;3.83;;;33.70;31.00;;;;;;5033739;28;20025;-79
2023/06/17 12:24:04;;;;;;;4.32;3.78;;;33.60;30.90;;;;;;5034495;28;20033;-80
2023/06/17 12:26:31;;;;;;;3.72;3.53;;;33.60;32.00;;;;;;5032053;28;20131;-79
2023/06/17 12:28:57;;;;;;;4.47;4.05;;;33.80;31.70;;;;;;5028677;28;20029;-79
2023/06/17 12:31:25;;;;;;;3.70;3.40;;;34.10;31.40;;;;;;5029457;28;20063;-82
2023/06/17 12:33:53;;;;;;;5.38;3.78;;;34.60;30.60;;;;;;5038383;28;20533;-82
2023/06/17 12:36:18;;;;;;;3.90;3.60;;;34.60;30.10;;;;;;5038556;28;20037;-83
2023/06/17 12:38:45;;;;;;;4.13;3.80;;;34.30;30.00;;;;;;5029656;28;20021;-82
2023/06/17 12:41:11;;;;;;;4.40;4.00;;;34.10;29.90;;;;;;5033115;28;20032;-83